Time;durP1;ratioP1;P1;durP2;ratioP2;P2;SDS_P1;SDS_P2;PMS_P1;PMS_P2;Temp;Humidity;BMP_temperature;BMP_pressure;BME280_temperature;BME280_humidity;BME280_pressure;Samples;Min_cycle;Max_cycle;Signal;HPM_P1;HPM_P2
2021/10/10 16:44:20;;;;;;;37.35;23.90;;;14.30;99.90;;;;;;2590599;54;20102;-77
2021/10/10 16:50:35;;;;;;;42.40;26.55;;;13.40;99.90;;;;;;2630804;47;20461;-78
2021/10/10 16:53:01;;;;;;;38.05;25.25;;;13.10;99.90;;;;;;2596338;47;20038;-86
2021/10/10 16:55:27;;;;;;;42.80;28.55;;;12.90;99.90;;;;;;2604385;47;20073;-82
2021/10/10 16:57:56;;;;;;;42.63;26.90;;;12.90;99.90;;;;;;2605647;47;20035;-82
2021/10/10 17:00:22;;;;;;;47.10;28.73;;;12.80;99.90;;;;;;2604041;54;20041;-81
2021/10/10 17:02:54;;;;;;;45.70;28.50;;;12.70;99.90;;;;;;2598430;47;20039;-81
2021/10/10 17:05:20;;;;;;;37.47;26.08;;;12.60;99.90;;;;;;2606406;46;20026;-81
2021/10/10 17:07:48;;;;;;;40.08;27.23;;;12.60;99.90;;;;;;2605525;47;20065;-78
2021/10/10 17:10:15;;;;;;;42.25;28.55;;;12.50;99.90;;;;;;2604636;46;20039;-79
2021/10/10 17:12:41;;;;;;;45.90;30.17;;;12.40;99.90;;;;;;2596423;46;20089;-80
2021/10/10 17:15:10;;;;;;;46.28;30.30;;;12.40;99.90;;;;;;2605489;39;20601;-79
2021/10/10 17:17:35;;;;;;;42.92;28.75;;;12.30;99.90;;;;;;2605798;46;20054;-81
2021/10/10 17:20:02;;;;;;;42.95;29.85;;;12.30;99.90;;;;;;2605344;39;20213;-78
2021/10/10 17:22:29;;;;;;;44.38;30.65;;;12.20;99.90;;;;;;2598409;39;20394;-77
2021/10/10 17:24:55;;;;;;;40.60;28.67;;;12.10;99.90;;;;;;2605502;46;20041;-77
2021/10/10 17:27:26;;;;;;;41.53;28.00;;;12.10;99.90;;;;;;2606637;46;20135;-78
2021/10/10 17:29:55;;;;;;;37.60;27.60;;;12.00;99.90;;;;;;2605650;46;20034;-82
2021/10/10 17:32:23;;;;;;;41.95;27.23;;;11.90;99.90;;;;;;2599065;54;20034;-80
2021/10/10 17:34:55;;;;;;;39.35;27.00;;;11.90;99.90;;;;;;2606485;54;20165;-77
2021/10/10 17:37:23;;;;;;;40.03;28.15;;;11.90;99.90;;;;;;2605774;47;20049;-77
2021/10/10 17:39:54;;;;;;;40.42;28.75;;;11.90;99.90;;;;;;2606527;46;20031;-78
2021/10/10 17:42:21;;;;;;;44.33;31.25;;;11.80;99.90;;;;;;2600024;39;20378;-78
2021/10/10 17:44:47;;;;;;;43.88;30.90;;;11.80;99.90;;;;;;2605199;47;20038;-81
2021/10/10 17:47:15;;;;;;;45.55;31.48;;;11.80;99.90;;;;;;2606623;54;20667;-79
2021/10/10 17:49:42;;;;;;;40.78;29.05;;;11.80;99.90;;;;;;2605184;51;20034;-76
2021/10/10 17:52:08;;;;;;;49.47;33.10;;;11.80;99.90;;;;;;2598210;54;20030;-80
2021/10/10 17:54:35;;;;;;;50.13;33.40;;;11.80;99.90;;;;;;2605585;46;20477;-78
2021/10/10 17:57:01;;;;;;;47.60;32.95;;;11.80;99.90;;;;;;2605844;46;20034;-84
2021/10/10 18:12:34;;;;;;;46.15;31.00;;;11.90;99.90;;;;;;2599501;46;20035;-78
2021/10/10 18:15:00;;;;;;;45.15;29.15;;;11.90;99.90;;;;;;2606835;39;20378;-78
2021/10/10 18:17:27;;;;;;;41.50;28.90;;;11.90;99.90;;;;;;2606540;46;20030;-80
2021/10/10 18:19:53;;;;;;;48.25;31.52;;;11.90;99.90;;;;;;2606007;47;20466;-78
2021/10/10 18:22:19;;;;;;;45.67;32.55;;;11.90;99.90;;;;;;2596987;47;20073;-83
2021/10/10 18:24:45;;;;;;;44.08;32.05;;;11.90;99.90;;;;;;2605608;46;20034;-77
2021/10/10 18:27:11;;;;;;;49.92;33.05;;;11.90;99.90;;;;;;2606138;47;20057;-78
2021/10/10 18:29:37;;;;;;;49.38;33.83;;;11.90;99.90;;;;;;2601811;46;20034;-81
2021/10/10 18:32:04;;;;;;;45.78;32.97;;;12.00;99.90;;;;;;2597213;46;20577;-80
2021/10/10 18:34:31;;;;;;;49.55;34.47;;;12.00;99.90;;;;;;2604445;46;20030;-79
2021/10/10 18:36:58;;;;;;;52.13;34.15;;;12.00;99.90;;;;;;2605551;46;21480;-83
2021/10/10 18:39:26;;;;;;;49.42;33.95;;;12.00;99.90;;;;;;2605730;39;20354;-80
2021/10/10 18:41:52;;;;;;;49.38;34.05;;;12.00;99.90;;;;;;2597301;46;20034;-78
2021/10/10 18:44:18;;;;;;;48.55;34.55;;;12.00;99.90;;;;;;2605772;54;20051;-80
2021/10/10 18:46:47;;;;;;;57.03;37.28;;;12.10;99.90;;;;;;2606036;47;20842;-77
2021/10/10 18:49:14;;;;;;;50.63;35.33;;;12.00;99.90;;;;;;2604937;46;20599;-78
2021/10/10 18:51:40;;;;;;;55.47;36.63;;;12.00;99.90;;;;;;2597418;54;20031;-80
2021/10/10 18:54:06;;;;;;;59.42;40.28;;;12.00;99.90;;;;;;2604825;47;20057;-79
2021/10/10 18:56:31;;;;;;;53.90;38.58;;;12.10;99.90;;;;;;2605294;46;20114;-77
2021/10/10 18:59:00;;;;;;;56.80;37.80;;;12.10;99.90;;;;;;2605142;54;20065;-84
2021/10/10 19:01:30;;;;;;;53.95;35.75;;;12.10;99.90;;;;;;2599267;47;20059;-82
2021/10/10 19:03:57;;;;;;;58.00;38.50;;;12.10;99.90;;;;;;2604315;54;20062;-84
2021/10/10 19:06:26;;;;;;;55.75;38.20;;;12.10;99.90;;;;;;2603030;47;20038;-79
2021/10/10 19:08:52;;;;;;;55.40;37.22;;;12.10;99.90;;;;;;2604967;47;20038;-83
2021/10/10 19:11:18;;;;;;;48.90;32.58;;;12.10;99.90;;;;;;2599467;47;20038;-78
2021/10/10 19:13:47;;;;;;;51.25;36.67;;;12.10;99.90;;;;;;2601596;46;20141;-83
2021/10/10 19:16:16;;;;;;;51.97;35.33;;;12.10;99.90;;;;;;2605024;47;20035;-82
2021/10/10 19:18:42;;;;;;;52.97;35.33;;;12.10;99.90;;;;;;2604605;47;20490;-80
2021/10/10 19:21:14;;;;;;;52.03;34.95;;;12.20;99.90;;;;;;2599600;47;20156;-79
2021/10/10 19:23:43;;;;;;;50.30;34.22;;;12.20;99.90;;;;;;2601652;46;20042;-79
2021/10/10 19:26:12;;;;;;;55.47;36.22;;;12.20;99.90;;;;;;2604411;46;20034;-82
2021/10/10 19:28:38;;;;;;;54.10;34.78;;;12.20;99.90;;;;;;2603786;47;20034;-84
2021/10/10 19:31:04;;;;;;;47.40;33.47;;;12.20;99.90;;;;;;2600293;39;20244;-77
2021/10/10 19:33:31;;;;;;;46.80;33.10;;;12.20;99.90;;;;;;2601672;47;20042;-78
2021/10/10 19:35:58;;;;;;;51.60;33.08;;;12.10;99.90;;;;;;2604967;54;20038;-77
2021/10/10 19:38:24;;;;;;;54.45;35.35;;;12.10;99.90;;;;;;2605082;47;20038;-85
2021/10/10 19:40:51;;;;;;;47.92;34.63;;;12.20;99.90;;;;;;2603351;39;20205;-83
2021/10/10 19:43:18;;;;;;;47.75;33.92;;;12.20;99.90;;;;;;2601986;47;20050;-82
2021/10/10 19:45:48;;;;;;;51.45;34.80;;;12.20;99.90;;;;;;2605558;47;20033;-85
2021/10/10 19:48:15;;;;;;;54.03;36.58;;;12.20;99.90;;;;;;2605776;47;20029;-78
2021/10/10 19:50:42;;;;;;;56.15;36.97;;;12.20;99.90;;;;;;2601312;54;20057;-79
2021/10/10 19:53:09;;;;;;;66.05;39.25;;;12.20;99.90;;;;;;2599919;47;20461;-78
2021/10/10 19:55:36;;;;;;;59.20;37.55;;;12.20;99.90;;;;;;2605252;39;20537;-76
2021/10/10 19:58:03;;;;;;;60.78;39.08;;;12.20;99.90;;;;;;2604923;47;20046;-77
2021/10/10 20:00:32;;;;;;;64.15;40.55;;;12.10;99.90;;;;;;2603106;54;20609;-77
2021/10/10 20:02:59;;;;;;;60.22;38.42;;;12.10;99.90;;;;;;2598247;47;20035;-83
2021/10/10 20:05:26;;;;;;;59.38;37.53;;;12.10;99.90;;;;;;2605365;39;20380;-75
2021/10/10 20:07:53;;;;;;;61.42;40.45;;;12.10;99.90;;;;;;2605532;47;20046;-77
2021/10/10 20:10:21;;;;;;;60.97;39.22;;;12.10;99.90;;;;;;2604709;54;20764;-77
2021/10/10 20:12:47;;;;;;;71.28;40.60;;;12.00;99.90;;;;;;2596652;47;20734;-78
2021/10/10 20:15:17;;;;;;;65.95;39.80;;;12.10;99.90;;;;;;2604538;54;20073;-76
2021/10/10 20:17:49;;;;;;;74.28;43.00;;;12.10;99.90;;;;;;2605293;39;20700;-75
2021/10/10 20:20:16;;;;;;;61.95;38.63;;;12.10;99.90;;;;;;2604308;47;20069;-78
2021/10/10 20:22:42;;;;;;;65.00;38.95;;;12.00;99.90;;;;;;2597139;31;20513;-83
2021/10/10 20:25:16;;;;;;;58.40;37.40;;;12.10;99.90;;;;;;2605646;47;20034;-77
2021/10/10 20:27:42;;;;;;;73.18;40.22;;;12.10;99.90;;;;;;2603702;47;20039;-81
2021/10/10 20:30:08;;;;;;;64.05;39.55;;;12.10;99.90;;;;;;2604959;47;20069;-78
2021/10/10 20:32:34;;;;;;;68.53;40.25;;;12.10;99.90;;;;;;2595243;47;20041;-76
2021/10/10 20:35:03;;;;;;;68.57;39.65;;;12.10;99.90;;;;;;2605415;47;20034;-76
2021/10/10 20:37:31;;;;;;;61.22;36.25;;;12.20;99.90;;;;;;2605978;46;20035;-76
2021/10/10 20:39:57;;;;;;;68.60;37.33;;;12.10;99.90;;;;;;2606037;46;20057;-80
2021/10/10 20:42:24;;;;;;;58.50;35.85;;;12.20;99.90;;;;;;2598171;54;20878;-79
2021/10/10 20:44:51;;;;;;;63.63;37.58;;;12.10;99.90;;;;;;2606618;47;20073;-75
2021/10/10 20:47:17;;;;;;;76.90;41.33;;;12.10;99.90;;;;;;2606631;47;20069;-79
2021/10/10 20:49:43;;;;;;;89.30;40.20;;;12.20;99.90;;;;;;2605088;54;20034;-81
2021/10/10 20:52:10;;;;;;;74.82;37.17;;;12.10;99.90;;;;;;2598178;46;20038;-78
2021/10/10 20:54:36;;;;;;;83.47;38.20;;;12.20;99.90;;;;;;2605606;46;20065;-78
2021/10/10 20:57:07;;;;;;;62.80;34.17;;;12.20;99.90;;;;;;2605716;47;20475;-79
2021/10/10 20:59:33;;;;;;;69.75;34.78;;;12.20;99.90;;;;;;2603576;46;20023;-79
2021/10/10 21:01:59;;;;;;;87.68;35.55;;;12.20;99.90;;;;;;2592456;39;20650;-76
2021/10/10 21:04:25;;;;;;;60.88;32.25;;;12.20;99.90;;;;;;2603052;39;20244;-78
2021/10/10 21:06:52;;;;;;;69.40;32.53;;;12.30;99.90;;;;;;2603249;46;20045;-75
2021/10/10 21:09:18;;;;;;;66.80;30.88;;;12.30;99.90;;;;;;2602706;54;20038;-80
2021/10/10 21:11:46;;;;;;;62.95;28.65;;;12.20;99.90;;;;;;2595987;54;20582;-76
2021/10/10 21:14:12;;;;;;;45.55;22.83;;;12.30;99.90;;;;;;2604962;46;20045;-75
2021/10/10 21:16:40;;;;;;;45.03;22.33;;;12.30;99.90;;;;;;2604777;46;20023;-78
2021/10/10 21:19:07;;;;;;;55.03;24.35;;;12.30;99.90;;;;;;2604671;54;20038;-74
2021/10/10 21:21:34;;;;;;;42.08;20.73;;;12.30;99.90;;;;;;2598979;47;20034;-74
2021/10/10 21:24:01;;;;;;;47.45;20.80;;;12.30;99.90;;;;;;2604249;46;20054;-75
2021/10/10 21:26:27;;;;;;;41.83;18.23;;;12.40;99.90;;;;;;2605198;47;20838;-75
2021/10/10 21:28:56;;;;;;;41.75;16.65;;;12.40;99.90;;;;;;2605282;47;20065;-80
2021/10/10 21:31:31;;;;;;;26.73;12.23;;;12.40;99.90;;;;;;2599606;47;20034;-75
2021/10/10 21:34:11;;;;;;;36.70;12.27;;;12.40;99.90;;;;;;2604808;46;20035;-80
2021/10/10 21:36:41;;;;;;;23.35;11.00;;;12.40;99.90;;;;;;2606043;46;20130;-78
2021/10/10 21:39:07;;;;;;;20.45;8.73;;;12.40;99.90;;;;;;2606465;46;20034;-81
2021/10/10 21:41:33;;;;;;;18.48;6.75;;;12.50;99.90;;;;;;2599039;47;20034;-80
2021/10/10 21:43:59;;;;;;;14.57;6.10;;;12.50;99.90;;;;;;2604952;46;20054;-73
2021/10/10 21:46:31;;;;;;;15.20;4.53;;;12.50;99.90;;;;;;2604917;47;20038;-74
2021/10/10 21:48:58;;;;;;;14.18;3.08;;;12.50;99.90;;;;;;2606388;39;20117;-76
2021/10/10 21:51:30;;;;;;;11.80;1.80;;;12.50;99.90;;;;;;2598356;54;20084;-74
2021/10/10 21:54:02;;;;;;;9.70;2.47;;;12.50;99.90;;;;;;2604182;54;20035;-78
2021/10/10 21:56:40;;;;;;;11.77;1.85;;;12.50;99.90;;;;;;2605063;47;20077;-74
2021/10/10 21:59:08;;;;;;;7.03;0.82;;;12.50;99.90;;;;;;2605242;47;20035;-76
2021/10/10 22:01:38;;;;;;;7.93;1.98;;;12.50;99.90;;;;;;2597800;47;20045;-75
2021/10/10 22:04:10;;;;;;;7.65;0.70;;;12.50;99.90;;;;;;2605004;47;20038;-74
2021/10/10 22:06:38;;;;;;;9.45;1.25;;;12.50;99.90;;;;;;2605260;46;20041;-78
2021/10/10 22:09:05;;;;;;;10.57;1.23;;;12.50;99.90;;;;;;2605771;54;20041;-75
2021/10/10 22:11:31;;;;;;;5.32;1.00;;;12.50;99.90;;;;;;2598338;47;20046;-75
2021/10/10 22:14:17;;;;;;;12.75;0.85;;;12.40;99.90;;;;;;2602894;54;20057;-75
2021/10/10 22:16:44;;;;;;;10.63;1.60;;;12.40;99.90;;;;;;2603476;47;20517;-74
2021/10/10 22:19:17;;;;;;;8.52;1.90;;;12.40;99.90;;;;;;2605490;46;20046;-76
2021/10/10 22:22:00;;;;;;;8.05;1.13;;;12.40;99.90;;;;;;2596190;47;20034;-80
2021/10/10 22:24:46;;;;;;;6.93;0.77;;;12.40;99.90;;;;;;2604650;46;20034;-78
2021/10/10 22:27:22;;;;;;;8.02;1.00;;;12.40;99.90;;;;;;2601756;46;20153;-74
2021/10/10 22:32:33;;;;;;;10.07;2.03;;;12.40;99.90;;;;;;2597342;47;20046;-80
2021/10/10 22:35:01;;;;;;;5.53;0.80;;;12.30;99.90;;;;;;2605986;46;20039;-75
2021/10/10 22:37:28;;;;;;;8.23;0.95;;;12.30;99.90;;;;;;2604136;54;20030;-75
2021/10/10 22:39:57;;;;;;;8.95;1.40;;;12.30;99.90;;;;;;2605621;46;20042;-75
2021/10/10 22:42:25;;;;;;;7.97;1.25;;;12.30;99.90;;;;;;2596751;46;20065;-78
2021/10/10 22:44:52;;;;;;;8.98;0.95;;;12.30;99.90;;;;;;2605662;46;20038;-79
2021/10/10 22:47:21;;;;;;;7.25;1.35;;;12.20;99.90;;;;;;2604826;47;20706;-75
2021/10/10 22:49:47;;;;;;;6.78;0.70;;;12.20;99.90;;;;;;2603765;46;20031;-77
2021/10/10 22:52:16;;;;;;;12.75;1.05;;;12.20;99.90;;;;;;2597040;54;20160;-79
2021/10/10 22:54:42;;;;;;;8.43;1.05;;;12.20;99.90;;;;;;2605273;46;20042;-77
2021/10/10 22:57:08;;;;;;;7.10;1.15;;;12.20;99.90;;;;;;2604043;47;20034;-78
2021/10/10 22:59:41;;;;;;;9.73;1.30;;;12.10;99.90;;;;;;2604297;47;20093;-74
2021/10/10 23:02:10;;;;;;;9.73;1.05;;;12.20;99.90;;;;;;2596325;47;20530;-79
2021/10/10 23:04:39;;;;;;;7.55;1.30;;;12.10;99.90;;;;;;2604194;46;20056;-76
2021/10/10 23:07:05;;;;;;;7.10;0.80;;;12.20;99.90;;;;;;2605693;46;20038;-75
2021/10/10 23:09:31;;;;;;;7.63;1.27;;;12.10;99.90;;;;;;2604411;46;20077;-75
2021/10/10 23:11:58;;;;;;;9.55;1.25;;;12.10;99.90;;;;;;2597353;47;20060;-75
2021/10/10 23:14:24;;;;;;;13.30;1.77;;;12.10;99.90;;;;;;2604077;46;20042;-81
2021/10/10 23:16:51;;;;;;;8.88;1.00;;;12.10;99.90;;;;;;2604995;47;20038;-79
2021/10/10 23:19:17;;;;;;;7.95;1.23;;;12.10;99.90;;;;;;2604157;46;20153;-76
2021/10/10 23:21:43;;;;;;;8.40;0.77;;;12.10;99.90;;;;;;2596878;54;20850;-79
2021/10/10 23:24:11;;;;;;;7.85;1.38;;;12.10;99.90;;;;;;2604309;54;20141;-76
2021/10/10 23:26:36;;;;;;;9.40;1.60;;;12.00;99.90;;;;;;2605119;47;20485;-75
2021/10/10 23:29:02;;;;;;;9.13;0.85;;;12.00;99.90;;;;;;2604829;46;20031;-81
2021/10/10 23:31:29;;;;;;;7.22;0.65;;;12.00;99.90;;;;;;2598277;51;20558;-74
2021/10/10 23:33:58;;;;;;;6.57;2.45;;;12.00;99.90;;;;;;2593611;47;20034;-79
2021/10/10 23:36:26;;;;;;;9.57;0.50;;;11.90;99.90;;;;;;2600554;47;20023;-82
2021/10/10 23:38:52;;;;;;;5.97;1.27;;;11.90;99.90;;;;;;2600385;47;20026;-79
2021/10/10 23:41:24;;;;;;;12.77;1.13;;;11.90;99.90;;;;;;2587220;47;20757;-74
2021/10/10 23:43:50;;;;;;;5.40;1.45;;;11.90;99.90;;;;;;2595922;47;20077;-78
2021/10/10 23:46:25;;;;;;;3.38;0.70;;;11.80;99.90;;;;;;2600073;47;20061;-80
2021/10/10 23:48:51;;;;;;;5.78;0.63;;;11.80;99.90;;;;;;2599676;47;20125;-77
2021/10/10 23:51:19;;;;;;;6.65;1.25;;;11.70;99.90;;;;;;2586411;47;20475;-75
2021/10/10 23:53:45;;;;;;;8.27;1.38;;;11.70;99.90;;;;;;2595082;47;20033;-78
2021/10/10 23:56:13;;;;;;;5.78;0.65;;;11.70;99.90;;;;;;2600296;39;20227;-77
2021/10/10 23:58:44;;;;;;;5.72;0.50;;;11.60;99.90;;;;;;2598666;47;20150;-74
